createdAt,value
2023-01-15T00:04:33.792Z,0
2023-01-15T00:10:56.910Z,0
2023-01-15T00:17:16.764Z,0
2023-01-15T00:23:39.852Z,0
2023-01-15T00:29:59.737Z,0
2023-01-15T00:36:22.833Z,0
2023-01-15T00:42:42.766Z,0
2023-01-15T00:49:05.803Z,0
2023-01-15T00:55:25.801Z,0
2023-01-15T01:01:48.989Z,0
2023-01-15T01:08:08.787Z,0
2023-01-15T01:14:31.863Z,0
2023-01-15T01:20:51.819Z,0
2023-01-15T01:27:14.840Z,0
2023-01-15T01:33:34.824Z,0
2023-01-15T01:39:57.833Z,0
2023-01-15T01:46:17.807Z,0
2023-01-15T01:52:40.738Z,0
2023-01-15T01:59:00.825Z,0
2023-01-15T02:05:23.823Z,0
2023-01-15T02:11:43.808Z,0
2023-01-15T02:18:06.797Z,0
2023-01-15T02:24:26.785Z,0
2023-01-15T02:30:49.935Z,0
2023-01-15T02:37:09.818Z,0
2023-01-15T02:43:32.902Z,0
2023-01-15T02:49:52.729Z,0
2023-01-15T02:56:15.767Z,0
2023-01-15T03:02:35.851Z,0
2023-01-15T03:08:58.871Z,0
2023-01-15T03:15:18.799Z,0
2023-01-15T03:21:41.887Z,0
2023-01-15T03:28:01.757Z,0
2023-01-15T03:34:24.811Z,0
2023-01-15T03:40:44.723Z,0
2023-01-15T03:47:07.797Z,0
2023-01-15T03:53:27.736Z,0
2023-01-15T03:59:50.777Z,0
2023-01-15T04:06:10.741Z,0
2023-01-15T04:30:09.708Z,0
2023-01-15T04:36:32.770Z,0
2023-01-15T04:42:52.850Z,0
2023-01-15T04:49:15.745Z,0
2023-01-15T04:55:35.767Z,0
2023-01-15T05:02:04.195Z,0
2023-01-15T05:08:18.861Z,0
2023-01-15T05:14:41.866Z,0
2023-01-15T05:21:01.746Z,0
2023-01-15T05:27:24.785Z,0
2023-01-15T05:33:44.758Z,0
2023-01-15T05:40:07.824Z,0
2023-01-15T05:46:27.952Z,0
2023-01-15T05:52:50.815Z,0
2023-01-15T05:59:10.829Z,0
2023-01-15T06:05:33.754Z,0
2023-01-15T06:11:54.267Z,0
2023-01-15T06:18:16.782Z,0
2023-01-15T06:24:36.759Z,0
2023-01-15T06:31:00.011Z,0
2023-01-15T06:37:19.871Z,0
2023-01-15T06:43:42.876Z,0
2023-01-15T06:50:02.955Z,0
2023-01-15T06:56:25.851Z,0
2023-01-15T07:02:45.844Z,0
2023-01-15T07:09:08.814Z,0
2023-01-15T07:15:28.814Z,0
2023-01-15T07:21:51.840Z,0
2023-01-15T07:28:11.812Z,0
2023-01-15T07:34:34.787Z,0
2023-01-15T07:40:54.772Z,0
2023-01-15T07:47:17.850Z,0
2023-01-15T07:53:37.894Z,0
2023-01-15T08:00:00.838Z,0
2023-01-15T08:06:20.832Z,0
2023-01-15T08:12:43.899Z,5.62
2023-01-15T08:19:03.815Z,0
2023-01-15T08:25:26.834Z,0
2023-01-15T08:31:46.890Z,5.62
2023-01-15T08:38:09.881Z,16.88
2023-01-15T08:44:29.825Z,5.62
2023-01-15T08:50:52.833Z,0
2023-01-15T08:57:12.835Z,5.62
2023-01-15T09:03:35.903Z,11.25
2023-01-15T09:09:55.801Z,11.25
2023-01-15T09:16:18.882Z,16.88
2023-01-15T09:41:23.734Z,22.5
2023-01-15T09:47:43.755Z,11.25
2023-01-15T09:54:06.861Z,11.25
2023-01-15T10:00:26.790Z,28.12
2023-01-15T10:06:49.774Z,39.38
2023-01-15T10:13:09.884Z,22.5
2023-01-15T10:19:44.095Z,16.88
2023-01-15T10:25:52.740Z,22.5
2023-01-15T10:32:15.796Z,22.5
2023-01-15T10:38:35.794Z,45
2023-01-15T10:44:58.787Z,61.88
2023-01-15T10:51:18.827Z,61.88
2023-01-15T10:57:41.838Z,67.5
2023-01-15T11:04:01.804Z,67.5
2023-01-15T11:10:24.794Z,78.75
2023-01-15T11:16:44.799Z,67.5
2023-01-15T11:23:07.770Z,84.38
2023-01-15T11:29:27.821Z,90
2023-01-15T11:35:50.783Z,78.75
2023-01-15T11:42:10.746Z,45
2023-01-15T11:48:33.818Z,56.25
2023-01-15T11:54:53.780Z,50.62
2023-01-15T12:01:16.791Z,61.88
2023-01-15T12:07:36.833Z,39.38
2023-01-15T12:13:59.765Z,28.12
2023-01-15T12:20:19.969Z,33.75
2023-01-15T12:26:42.787Z,33.75
2023-01-15T12:33:03.011Z,33.75
2023-01-15T12:39:25.762Z,50.62
2023-01-15T12:45:45.739Z,56.25
2023-01-15T12:52:08.826Z,39.38
2023-01-15T12:58:28.754Z,28.12
2023-01-15T13:04:51.796Z,45
2023-01-15T13:11:11.846Z,45
2023-01-15T13:17:34.771Z,22.5
2023-01-15T13:23:54.837Z,28.12
2023-01-15T13:30:17.763Z,16.88
2023-01-15T13:36:37.867Z,16.88
2023-01-15T13:43:00.828Z,28.12
2023-01-15T13:49:20.738Z,22.5
2023-01-15T13:55:43.846Z,28.12
2023-01-15T14:02:03.858Z,39.38
2023-01-15T14:08:26.778Z,33.75
2023-01-15T14:14:46.797Z,28.12
2023-01-15T14:21:09.823Z,16.88
2023-01-15T14:27:29.816Z,11.25
2023-01-15T14:33:52.764Z,5.62
2023-01-15T14:57:59.265Z,0
2023-01-15T15:04:18.725Z,0
2023-01-15T15:10:41.750Z,0
2023-01-15T15:17:01.839Z,0
2023-01-15T15:23:24.747Z,0
2023-01-15T15:29:44.886Z,0
2023-01-15T15:36:07.827Z,0
2023-01-15T15:42:27.847Z,0
2023-01-15T15:48:50.864Z,0
2023-01-15T15:55:10.761Z,0
2023-01-15T16:01:33.879Z,0
2023-01-15T16:07:53.989Z,0
2023-01-15T16:14:17.116Z,0
2023-01-15T16:20:36.770Z,0
2023-01-15T16:26:59.793Z,0
2023-01-15T16:33:19.890Z,0
2023-01-15T16:39:42.748Z,0
2023-01-15T16:46:03.065Z,0
2023-01-15T16:52:25.760Z,0
2023-01-15T16:58:45.783Z,0
2023-01-15T17:05:08.830Z,0
2023-01-15T17:11:28.780Z,0
2023-01-15T17:17:51.818Z,0
2023-01-15T17:24:11.815Z,0
2023-01-15T17:30:34.785Z,0
2023-01-15T17:36:54.849Z,0
2023-01-15T17:43:17.766Z,0
2023-01-15T17:49:37.832Z,0
2023-01-15T17:56:00.821Z,0
2023-01-15T18:02:20.896Z,0
2023-01-15T18:08:43.809Z,0
2023-01-15T18:15:03.770Z,0
2023-01-15T18:21:26.825Z,0
2023-01-15T18:27:46.746Z,0
2023-01-15T18:34:09.780Z,0
2023-01-15T18:40:29.885Z,0
2023-01-15T18:46:52.902Z,0
2023-01-15T18:53:12.832Z,0
2023-01-15T18:59:35.775Z,0
2023-01-15T19:05:55.838Z,0
2023-01-15T19:12:18.872Z,0
2023-01-15T19:18:38.773Z,0
2023-01-15T19:25:01.796Z,0
2023-01-15T19:31:21.914Z,0
2023-01-15T19:37:44.800Z,0
2023-01-15T19:44:04.801Z,0
2023-01-15T19:59:39.643Z,0
2023-01-15T20:05:59.763Z,0
2023-01-15T20:12:22.785Z,0
2023-01-15T20:18:42.834Z,0
2023-01-15T20:25:05.770Z,0
2023-01-15T20:31:25.861Z,0
2023-01-15T20:37:48.776Z,0
2023-01-15T20:44:08.767Z,0
2023-01-15T20:50:32.077Z,0
2023-01-15T20:56:51.842Z,0
2023-01-15T21:03:14.838Z,0
2023-01-15T21:09:34.721Z,0
2023-01-15T21:15:57.755Z,0
2023-01-15T21:22:17.817Z,0
2023-01-15T21:28:40.752Z,0
2023-01-15T21:35:00.787Z,0
2023-01-15T21:41:23.777Z,0
2023-01-15T21:47:43.742Z,0
2023-01-15T21:54:06.885Z,0
2023-01-15T22:00:26.770Z,0
2023-01-15T22:06:49.820Z,0
2023-01-15T22:13:09.747Z,0
2023-01-15T22:19:32.803Z,0
2023-01-15T22:25:52.777Z,0
2023-01-15T22:32:15.742Z,0
2023-01-15T22:38:35.893Z,0
2023-01-15T22:44:58.748Z,0
2023-01-15T22:51:18.810Z,0
2023-01-15T22:57:41.828Z,0
2023-01-15T23:20:38.788Z,0
2023-01-15T23:26:58.730Z,0
2023-01-15T23:33:21.728Z,0
2023-01-15T23:39:41.799Z,0
2023-01-15T23:46:05.093Z,0
2023-01-15T23:52:24.974Z,0
2023-01-15T23:58:47.838Z,0
